createdAt,value
2019-05-19T00:00:14.425Z,0
2019-05-19T00:01:15.030Z,0
2019-05-19T00:02:15.602Z,0
2019-05-19T00:03:16.225Z,0
2019-05-19T00:04:16.772Z,0
2019-05-19T00:05:17.365Z,0
2019-05-19T00:06:17.978Z,0
2019-05-19T00:07:18.548Z,0
2019-05-19T00:08:19.126Z,0
2019-05-19T00:09:19.692Z,0
2019-05-19T00:10:20.263Z,0
2019-05-19T00:11:20.834Z,0
2019-05-19T00:12:21.406Z,0
2019-05-19T00:13:22.019Z,0
2019-05-19T00:14:22.592Z,0
2019-05-19T00:15:23.184Z,0
2019-05-19T00:16:23.777Z,0
2019-05-19T00:17:24.391Z,0
2019-05-19T00:18:24.963Z,0
2019-05-19T00:19:27.030Z,0
2019-05-19T00:20:26.140Z,0
2019-05-19T00:21:26.719Z,0
2019-05-19T00:22:27.324Z,0
2019-05-19T00:23:27.895Z,0
2019-05-19T00:24:28.466Z,0
2019-05-19T00:25:29.057Z,0
2019-05-19T00:26:29.653Z,0
2019-05-19T00:27:30.227Z,0
2019-05-19T00:28:30.842Z,0
2019-05-19T00:29:31.426Z,0
2019-05-19T00:30:31.983Z,0
2019-05-19T00:31:32.555Z,0
2019-05-19T00:32:33.124Z,0
2019-05-19T00:33:33.695Z,0
2019-05-19T00:34:34.307Z,0
2019-05-19T00:35:34.895Z,0
2019-05-19T00:36:35.496Z,0
2019-05-19T00:37:36.069Z,0
2019-05-19T00:38:36.683Z,0
2019-05-19T00:39:37.275Z,0
2019-05-19T00:40:37.869Z,0
2019-05-19T00:41:38.440Z,0
2019-05-19T00:42:39.015Z,0
2019-05-19T00:43:39.582Z,0
2019-05-19T00:44:40.153Z,0
2019-05-19T00:45:40.723Z,0
2019-05-19T00:46:41.304Z,0
2019-05-19T00:47:41.912Z,0
2019-05-19T00:48:42.479Z,0
2019-05-19T00:49:43.058Z,0
2019-05-19T00:50:43.622Z,0
2019-05-19T00:51:44.190Z,0
2019-05-19T00:52:44.763Z,0
2019-05-19T00:53:45.334Z,0
2019-05-19T00:54:45.916Z,0
2019-05-19T00:55:46.476Z,0
2019-05-19T00:56:47.048Z,0
2019-05-19T00:57:47.618Z,0
2019-05-19T00:58:48.188Z,0
2019-05-19T00:59:48.759Z,0
2019-05-19T01:00:49.331Z,0
2019-05-19T01:01:49.906Z,0
2019-05-19T01:02:50.515Z,0
2019-05-19T01:03:51.090Z,0
2019-05-19T01:04:51.659Z,0
2019-05-19T01:05:52.227Z,0
2019-05-19T01:06:52.804Z,0
2019-05-19T01:07:53.415Z,0
2019-05-19T01:08:53.986Z,0
2019-05-19T01:09:54.557Z,0
2019-05-19T01:10:55.127Z,0
2019-05-19T01:11:55.697Z,0
2019-05-19T01:12:56.269Z,0
2019-05-19T01:13:56.838Z,0
2019-05-19T01:14:57.409Z,0
2019-05-19T01:15:57.978Z,0
2019-05-19T01:16:58.548Z,0
2019-05-19T01:17:59.119Z,0
2019-05-19T01:18:59.689Z,0
2019-05-19T01:20:00.257Z,0
2019-05-19T01:21:00.829Z,0
2019-05-19T01:22:01.405Z,0
2019-05-19T01:23:01.969Z,0
2019-05-19T01:24:02.541Z,0
2019-05-19T01:25:03.111Z,0
2019-05-19T01:26:03.682Z,0
2019-05-19T01:27:04.254Z,0
2019-05-19T01:28:04.827Z,0
2019-05-19T01:29:05.401Z,0
2019-05-19T01:30:05.965Z,0
2019-05-19T01:31:06.540Z,0
2019-05-19T01:32:07.108Z,0
2019-05-19T01:33:07.722Z,0
2019-05-19T01:34:08.292Z,0
2019-05-19T01:35:08.867Z,0
2019-05-19T01:36:09.434Z,0
2019-05-19T01:37:10.008Z,0
2019-05-19T01:38:10.578Z,0
2019-05-19T01:39:11.145Z,0
2019-05-19T01:40:11.723Z,0
2019-05-19T01:41:12.291Z,0
2019-05-19T01:42:12.856Z,0
2019-05-19T01:43:13.431Z,0
2019-05-19T01:44:13.998Z,0
2019-05-19T01:45:14.618Z,0
2019-05-19T01:46:15.145Z,0
2019-05-19T01:47:15.715Z,0
2019-05-19T01:48:16.286Z,0
2019-05-19T01:49:16.857Z,0
2019-05-19T01:50:18.582Z,0
2019-05-19T01:51:18.992Z,0
2019-05-19T01:52:19.563Z,0
2019-05-19T01:53:20.131Z,0
2019-05-19T01:54:20.703Z,0
2019-05-19T01:55:21.274Z,0
2019-05-19T01:56:21.842Z,0
2019-05-19T01:57:22.416Z,0
2019-05-19T01:58:23.030Z,0
2019-05-19T01:59:23.599Z,0
2019-05-19T02:00:24.172Z,0
2019-05-19T02:01:24.743Z,0
2019-05-19T02:02:25.313Z,0
2019-05-19T02:03:25.884Z,0
2019-05-19T02:04:26.456Z,0
2019-05-19T02:05:27.028Z,0
2019-05-19T02:06:27.598Z,0
2019-05-19T02:07:28.183Z,0
2019-05-19T02:08:28.782Z,0
2019-05-19T02:09:29.362Z,0
2019-05-19T02:10:29.978Z,0
2019-05-19T02:11:30.547Z,0
2019-05-19T02:12:31.168Z,0
2019-05-19T02:13:31.733Z,0
2019-05-19T02:14:32.304Z,0
2019-05-19T02:15:32.877Z,0
2019-05-19T02:16:33.448Z,0
2019-05-19T02:17:34.018Z,0
2019-05-19T02:18:34.591Z,0
2019-05-19T02:19:35.161Z,0
2019-05-19T02:20:35.731Z,0
2019-05-19T02:21:36.301Z,0
2019-05-19T02:22:36.870Z,0
2019-05-19T02:23:37.440Z,0
2019-05-19T02:24:38.034Z,0
2019-05-19T02:25:38.579Z,0
2019-05-19T02:26:39.354Z,0
2019-05-19T02:27:39.970Z,0
2019-05-19T02:28:40.535Z,0
2019-05-19T02:29:41.105Z,0
2019-05-19T02:30:41.682Z,0
2019-05-19T02:31:42.291Z,0
2019-05-19T02:32:42.902Z,0
2019-05-19T02:33:43.471Z,0
2019-05-19T02:34:44.045Z,0
2019-05-19T02:35:44.657Z,0
2019-05-19T02:36:45.247Z,0
2019-05-19T02:37:45.821Z,0
2019-05-19T02:38:46.395Z,0
2019-05-19T02:39:46.962Z,0
2019-05-19T02:40:47.574Z,0
2019-05-19T02:41:48.145Z,0
2019-05-19T02:42:48.719Z,0
2019-05-19T02:43:49.328Z,0
2019-05-19T02:44:49.900Z,0
2019-05-19T02:45:50.512Z,0
2019-05-19T02:46:51.082Z,0
2019-05-19T02:47:51.662Z,0
2019-05-19T02:48:52.265Z,0
2019-05-19T02:49:52.844Z,0
2019-05-19T02:50:53.471Z,0
2019-05-19T02:51:54.011Z,0
2019-05-19T02:52:54.579Z,0
2019-05-19T02:53:55.151Z,0
2019-05-19T02:54:55.765Z,0
2019-05-19T02:55:56.336Z,0
2019-05-19T02:56:56.906Z,0
2019-05-19T02:57:57.476Z,0
2019-05-19T02:58:58.047Z,0
2019-05-19T02:59:58.620Z,0
2019-05-19T03:00:59.192Z,0
2019-05-19T03:01:59.759Z,0
2019-05-19T03:03:00.330Z,0
2019-05-19T03:04:00.898Z,0
2019-05-19T03:05:01.476Z,0
2019-05-19T03:06:02.050Z,0
2019-05-19T03:07:02.676Z,0
2019-05-19T03:08:03.276Z,0
2019-05-19T03:09:03.846Z,0
2019-05-19T03:10:04.420Z,0
2019-05-19T03:11:05.025Z,0
2019-05-19T03:12:05.596Z,0
2019-05-19T03:13:06.172Z,0
2019-05-19T03:14:06.779Z,0
2019-05-19T03:15:07.349Z,0
2019-05-19T03:16:07.949Z,0
2019-05-19T03:17:08.530Z,0
2019-05-19T03:18:09.135Z,0
2019-05-19T03:19:09.756Z,0
2019-05-19T03:20:10.341Z,0
2019-05-19T03:21:12.084Z,0
2019-05-19T03:22:11.560Z,0
2019-05-19T03:23:12.164Z,0
2019-05-19T03:24:12.776Z,0
2019-05-19T03:25:13.379Z,0
2019-05-19T03:26:13.963Z,0
2019-05-19T03:27:14.743Z,0
2019-05-19T03:28:15.351Z,0
2019-05-19T03:29:15.963Z,0
2019-05-19T03:30:16.537Z,0
2019-05-19T03:31:17.108Z,0
2019-05-19T03:32:17.722Z,0
2019-05-19T03:33:18.346Z,0
2019-05-19T03:34:18.947Z,0
2019-05-19T03:35:19.549Z,0
2019-05-19T03:36:20.162Z,0
2019-05-19T03:37:20.749Z,0
2019-05-19T03:38:21.369Z,0
2019-05-19T03:39:22.166Z,0
2019-05-19T03:40:22.777Z,0
2019-05-19T03:41:23.393Z,0
2019-05-19T03:42:23.963Z,0
2019-05-19T03:43:24.568Z,0
2019-05-19T03:44:25.146Z,0
2019-05-19T03:45:25.780Z,0
2019-05-19T03:46:26.330Z,0
2019-05-19T03:47:26.938Z,0
2019-05-19T03:48:27.541Z,0
2019-05-19T03:49:28.112Z,0
2019-05-19T03:50:28.762Z,0
2019-05-19T03:51:31.683Z,0
2019-05-19T03:52:29.948Z,0
2019-05-19T03:53:30.527Z,0
2019-05-19T03:54:31.086Z,0
2019-05-19T03:55:31.699Z,0
2019-05-19T03:56:47.080Z,0
2019-05-19T03:57:47.695Z,0
2019-05-19T03:58:48.262Z,0
2019-05-19T04:01:04.251Z,0
2019-05-19T04:02:04.823Z,0
2019-05-19T04:03:05.409Z,0
2019-05-19T04:04:05.960Z,0
2019-05-19T04:05:06.532Z,0
2019-05-19T04:06:07.103Z,0
2019-05-19T04:07:07.674Z,0
2019-05-19T04:08:08.288Z,0
2019-05-19T04:09:08.906Z,0
2019-05-19T04:10:09.515Z,0
2019-05-19T04:11:10.083Z,0
2019-05-19T04:12:10.656Z,0
2019-05-19T05:25:22.412Z,0
2019-05-19T05:26:23.030Z,0
2019-05-19T05:27:23.565Z,0
2019-05-19T10:30:41.842Z,3284
2019-05-19T10:31:42.432Z,3324
2019-05-19T10:32:43.075Z,3340
2019-05-19T10:33:43.663Z,3364
2019-05-19T10:34:44.237Z,3416
2019-05-19T10:35:44.819Z,3232
2019-05-19T10:36:45.399Z,3472
2019-05-19T10:37:45.975Z,3508
2019-05-19T10:38:46.551Z,3544
2019-05-19T10:39:47.129Z,3596
2019-05-19T10:40:47.741Z,3644
2019-05-19T10:41:48.328Z,3676
2019-05-19T10:42:48.905Z,3684
2019-05-19T10:43:49.484Z,3760
2019-05-19T10:44:50.103Z,3776
2019-05-19T10:45:50.685Z,3820
2019-05-19T10:46:51.259Z,3852
2019-05-19T10:47:51.840Z,3884
2019-05-19T10:48:52.416Z,3912
2019-05-19T10:49:52.993Z,3948
2019-05-19T10:50:53.571Z,3972
2019-05-19T10:51:54.150Z,4008
2019-05-19T10:52:54.728Z,4088
2019-05-19T10:53:55.306Z,4148
2019-05-19T10:54:55.884Z,4244
2019-05-19T10:55:56.464Z,4472
2019-05-19T10:56:57.042Z,4624
2019-05-19T10:57:57.621Z,5244
2019-05-19T10:58:58.245Z,7432
2019-05-19T10:59:58.823Z,13420
2019-05-19T11:00:59.401Z,16684
2019-05-19T11:01:59.982Z,16008
2019-05-19T11:03:00.562Z,15120
2019-05-19T11:04:01.141Z,14756
2019-05-19T11:05:01.725Z,14568
2019-05-19T11:06:02.421Z,14468
2019-05-19T11:07:02.984Z,14168
2019-05-19T11:08:03.560Z,13616
2019-05-19T11:09:04.141Z,13636
2019-05-19T11:10:04.727Z,13612
2019-05-19T11:11:05.301Z,13620
2019-05-19T11:12:05.927Z,13556
2019-05-19T11:13:06.479Z,13368
2019-05-19T11:14:07.060Z,13552
2019-05-19T11:15:07.645Z,13136
2019-05-19T11:26:54.537Z,7776
2019-05-19T11:27:55.131Z,7256
2019-05-19T11:28:55.737Z,7148
2019-05-19T11:29:56.330Z,7124
2019-05-19T11:30:56.914Z,6860
2019-05-19T11:31:57.543Z,6748
2019-05-19T11:32:58.131Z,6716
2019-05-19T11:33:58.713Z,6756
2019-05-19T11:34:59.299Z,6856
2019-05-19T11:35:59.878Z,7316
2019-05-19T11:37:00.463Z,8312
2019-05-19T11:38:01.048Z,8996
2019-05-19T11:39:01.634Z,9184
2019-05-19T11:41:17.900Z,11472
2019-05-19T11:42:18.488Z,13164
2019-05-19T11:43:19.073Z,13428
2019-05-19T11:44:19.864Z,14024
2019-05-19T11:45:20.447Z,13092
2019-05-19T11:46:21.035Z,14760
2019-05-19T11:47:21.618Z,15000
2019-05-19T11:48:22.205Z,14212
2019-05-19T11:49:22.788Z,15468
2019-05-19T11:50:23.378Z,16308
2019-05-19T11:51:23.958Z,15944
2019-05-19T11:52:24.544Z,15128
2019-05-19T11:53:25.130Z,15564
2019-05-19T11:54:25.753Z,14432
2019-05-19T11:55:26.339Z,14608
2019-05-19T11:56:26.923Z,14844
2019-05-19T11:57:27.507Z,14388
2019-05-19T11:58:28.091Z,14532
2019-05-19T11:59:29.088Z,14480
2019-05-19T12:00:29.718Z,14512
2019-05-19T12:01:30.298Z,14696
2019-05-19T12:02:30.885Z,14816
2019-05-19T12:03:31.470Z,15372
2019-05-19T12:04:32.055Z,14972
2019-05-19T12:05:32.648Z,14724
2019-05-19T12:06:39.254Z,15248
2019-05-19T12:07:34.808Z,15400
2019-05-19T12:08:35.392Z,15556
2019-05-19T12:09:35.979Z,15852
2019-05-19T12:10:36.567Z,16492
2019-05-19T12:11:37.149Z,16768
2019-05-19T12:12:37.735Z,16832
2019-05-19T12:13:38.325Z,18004
2019-05-19T12:14:38.976Z,18976
2019-05-19T12:15:39.613Z,20480
2019-05-19T12:16:40.242Z,21280
2019-05-19T12:17:40.864Z,23520
2019-05-19T12:18:41.459Z,25664
2019-05-19T12:19:42.042Z,28896
2019-05-19T12:20:42.634Z,32672
2019-05-19T12:22:01.944Z,38432
2019-05-19T12:23:02.573Z,43744
2019-05-19T12:24:03.211Z,48224
2019-05-19T12:25:04.042Z,52704
2019-05-19T12:26:04.668Z,55104
2019-05-19T12:27:05.298Z,57568
2019-05-19T12:28:12.585Z,60576
2019-05-19T12:30:43.803Z,60576
2019-05-19T12:31:44.393Z,58656
2019-05-19T12:32:44.982Z,56320
2019-05-19T12:35:01.015Z,60800
2019-05-19T12:36:01.599Z,58208
2019-05-19T12:37:02.233Z,57504
2019-05-19T12:38:02.820Z,57152
2019-05-19T12:39:03.460Z,59872
2019-05-19T12:41:20.539Z,62880
2019-05-19T12:42:21.130Z,62912
2019-05-19T12:43:21.716Z,63008
2019-05-19T12:44:22.305Z,61792
2019-05-19T12:45:22.893Z,59424
2019-05-19T12:46:23.481Z,61088
2019-05-19T12:47:24.072Z,60800
2019-05-19T12:48:24.658Z,60448
2019-05-19T12:50:40.892Z,55936
2019-05-19T12:51:41.482Z,60448
2019-05-19T12:52:42.073Z,60960
2019-05-19T12:53:42.669Z,61664
2019-05-19T12:54:43.260Z,58496
2019-05-19T12:55:43.846Z,59776
2019-05-19T12:56:44.436Z,61792
2019-05-19T12:57:45.025Z,60800
2019-05-19T12:58:45.616Z,59200
2019-05-19T12:59:46.203Z,58880
2019-05-19T13:00:46.796Z,63456
2019-05-19T13:01:47.430Z,61920
2019-05-19T13:02:48.020Z,65120
2019-05-19T13:03:48.617Z,64064
2019-05-19T13:05:04.393Z,49920
2019-05-19T13:05:50.804Z,42400
2019-05-19T13:06:51.459Z,39328
2019-05-19T13:07:52.049Z,19456
2019-05-19T13:08:52.683Z,17500
2019-05-19T13:09:53.283Z,12060
2019-05-19T13:10:53.903Z,24128
2019-05-19T13:11:54.694Z,18272
2019-05-19T13:12:55.325Z,14704
2019-05-19T13:13:55.923Z,11792
2019-05-19T13:14:56.503Z,43424
2019-05-19T13:15:57.133Z,43584
2019-05-19T13:16:57.722Z,44256
2019-05-19T13:17:58.307Z,33344
2019-05-19T13:18:58.898Z,27904
2019-05-19T13:19:59.487Z,32384
2019-05-19T13:21:00.115Z,39744
2019-05-19T13:22:00.751Z,36320
2019-05-19T13:23:01.384Z,39264
2019-05-19T13:24:02.219Z,40224
2019-05-19T13:25:03.010Z,37312
2019-05-19T13:26:03.597Z,37120
2019-05-19T13:27:04.241Z,37568
2019-05-19T13:28:04.865Z,38112
2019-05-19T13:29:05.473Z,30784
2019-05-19T13:30:06.069Z,28352
2019-05-19T13:31:06.676Z,37920
2019-05-19T13:32:07.263Z,39872
2019-05-19T13:33:07.854Z,38400
2019-05-19T13:34:08.443Z,38144
2019-05-19T13:35:09.031Z,38944
2019-05-19T13:36:09.625Z,38688
2019-05-19T13:37:10.207Z,37088
2019-05-19T13:38:10.795Z,34016
2019-05-19T13:39:11.430Z,26624
2019-05-19T13:40:12.064Z,15728
2019-05-19T13:41:12.655Z,9256
2019-05-19T13:42:13.254Z,8056
2019-05-19T13:43:13.881Z,7788
2019-05-19T13:44:14.517Z,7720
2019-05-19T13:45:15.106Z,7716
2019-05-19T13:46:15.696Z,7788
2019-05-19T13:47:16.297Z,7972
2019-05-19T13:48:16.920Z,8072
2019-05-19T13:49:17.540Z,8440
2019-05-19T13:50:18.140Z,8780
2019-05-19T13:51:18.973Z,9668
2019-05-19T13:53:35.048Z,25152
2019-05-19T13:54:36.302Z,34496
2019-05-19T13:56:52.358Z,37824
2019-05-19T13:57:53.153Z,30912
2019-05-19T14:01:28.596Z,32032
2019-05-19T14:02:26.143Z,23520
2019-05-19T14:05:58.555Z,13484
2019-05-19T14:06:59.197Z,15816
2019-05-19T14:07:59.829Z,15212
2019-05-19T14:09:00.465Z,14556
2019-05-19T14:10:01.290Z,11144
2019-05-19T14:11:01.923Z,12460
2019-05-19T14:12:02.560Z,10348
2019-05-19T14:25:44.005Z,17508
2019-05-19T14:26:44.586Z,16872
2019-05-19T14:27:45.174Z,16740
2019-05-19T14:28:45.803Z,17716
2019-05-19T14:29:46.389Z,18848
2019-05-19T14:30:46.973Z,21728
2019-05-19T14:31:47.560Z,24992
2019-05-19T14:32:48.153Z,28352
2019-05-19T14:33:48.775Z,31936
2019-05-19T14:34:49.392Z,30400
2019-05-19T14:35:49.983Z,27072
2019-05-19T14:36:50.564Z,13688
2019-05-19T14:37:51.151Z,16608
2019-05-19T14:38:51.735Z,15672
2019-05-19T14:39:52.321Z,13080
2019-05-19T14:40:52.906Z,13236
2019-05-19T14:41:53.489Z,10596
2019-05-19T14:42:54.084Z,10448
2019-05-19T14:43:54.691Z,9992
2019-05-19T14:44:55.239Z,9080
2019-05-19T14:45:55.825Z,8496
2019-05-19T14:46:56.406Z,8092
2019-05-19T14:47:56.993Z,7876
2019-05-19T14:48:57.619Z,7412
2019-05-19T14:49:58.202Z,7340
2019-05-19T14:50:58.787Z,7040
2019-05-19T14:51:59.370Z,6760
2019-05-19T14:52:59.999Z,6692
2019-05-19T14:54:00.583Z,6896
2019-05-19T14:55:01.164Z,6888
2019-05-19T14:56:01.747Z,6836
2019-05-19T14:57:02.369Z,6336
2019-05-19T14:58:02.934Z,6044
2019-05-19T14:59:03.517Z,6248
2019-05-19T15:00:04.101Z,5744
2019-05-19T15:01:04.727Z,6000
2019-05-19T15:02:05.317Z,5844
2019-05-19T15:03:05.897Z,5560
2019-05-19T15:04:07.538Z,5496
2019-05-19T15:05:08.528Z,5988
2019-05-19T15:06:09.111Z,7036
2019-05-19T15:07:09.702Z,7676
2019-05-19T15:08:10.327Z,7428
2019-05-19T15:09:10.916Z,7248
2019-05-19T15:10:11.538Z,7716
2019-05-19T15:11:12.118Z,7132
2019-05-19T15:12:12.703Z,7432
2019-05-19T15:13:13.286Z,7904
2019-05-19T15:14:13.874Z,8024
2019-05-19T15:15:14.453Z,7512
2019-05-19T15:16:15.039Z,6964
2019-05-19T15:17:15.621Z,6832
2019-05-19T15:18:16.203Z,6348
2019-05-19T15:19:16.785Z,6176
2019-05-19T15:20:17.368Z,7148
2019-05-19T15:21:17.952Z,7380
2019-05-19T15:22:18.529Z,7352
2019-05-19T15:23:19.113Z,7180
2019-05-19T15:24:19.694Z,6456
2019-05-19T15:25:20.275Z,6116
2019-05-19T15:26:20.857Z,5704
2019-05-19T15:27:21.438Z,5800
2019-05-19T15:28:22.020Z,5724
2019-05-19T15:29:22.602Z,5888
2019-05-19T15:30:23.182Z,5556
2019-05-19T15:31:23.764Z,5792
2019-05-19T15:32:24.350Z,5796
2019-05-19T15:33:24.953Z,5992
2019-05-19T15:34:26.577Z,6356
2019-05-19T15:35:27.159Z,6440
2019-05-19T15:36:27.782Z,6440
2019-05-19T15:37:28.365Z,5764
2019-05-19T15:38:28.948Z,5376
2019-05-19T15:39:29.578Z,5344
2019-05-19T15:40:30.221Z,5556
2019-05-19T15:42:46.257Z,5032
2019-05-19T15:43:46.839Z,4360
2019-05-19T15:44:47.422Z,4816
2019-05-19T15:45:48.058Z,5380
2019-05-19T15:46:48.642Z,4920
2019-05-19T15:47:49.222Z,5348
2019-05-19T15:48:49.803Z,5584
2019-05-19T15:49:50.385Z,5152
2019-05-19T15:50:51.018Z,4968
2019-05-19T15:52:01.606Z,5068
2019-05-19T15:52:52.223Z,5764
2019-05-19T15:53:52.811Z,6128
2019-05-19T15:54:53.392Z,5972
2019-05-19T15:55:53.969Z,5844
2019-05-19T15:56:54.594Z,5440
2019-05-19T15:57:55.177Z,5136
2019-05-19T15:58:55.763Z,5120
2019-05-19T15:59:56.382Z,4832
2019-05-19T16:00:56.977Z,4712
2019-05-19T16:01:57.604Z,4384
2019-05-19T16:02:58.221Z,4284
2019-05-19T16:03:58.792Z,3936
2019-05-19T16:04:59.374Z,4120
2019-05-19T16:05:59.958Z,4508
2019-05-19T16:07:00.538Z,4600
2019-05-19T16:08:01.118Z,4560
2019-05-19T16:09:01.700Z,4368
2019-05-19T16:10:02.345Z,4604
2019-05-19T16:11:02.907Z,4560
2019-05-19T16:12:03.488Z,4632
2019-05-19T16:13:04.071Z,4692
2019-05-19T16:14:04.654Z,4920
2019-05-19T16:15:05.233Z,5144
2019-05-19T16:16:05.815Z,4952
2019-05-19T16:17:06.395Z,4780
2019-05-19T16:18:06.975Z,4404
2019-05-19T16:19:07.598Z,4332
2019-05-19T16:20:08.175Z,4156
2019-05-19T16:21:08.756Z,3836
2019-05-19T16:22:09.335Z,3252
2019-05-19T16:23:09.916Z,3304
2019-05-19T16:24:10.501Z,2812
2019-05-19T16:25:11.119Z,2484
2019-05-19T16:26:11.697Z,2724
2019-05-19T16:27:12.918Z,2916
2019-05-19T16:28:13.617Z,3472
2019-05-19T16:29:14.198Z,4020
2019-05-19T16:30:14.777Z,4252
2019-05-19T16:31:15.359Z,4176
2019-05-19T16:32:15.942Z,3800
2019-05-19T16:33:16.678Z,3524
2019-05-19T16:34:17.137Z,3764
2019-05-19T16:35:17.716Z,3900
2019-05-19T16:36:18.296Z,3564
2019-05-19T16:37:18.875Z,3296
2019-05-19T16:38:19.457Z,3396
2019-05-19T16:39:20.038Z,3452
2019-05-19T16:40:20.615Z,3496
2019-05-19T16:41:21.194Z,3940
2019-05-19T16:42:21.775Z,4072
2019-05-19T16:43:22.354Z,4188
2019-05-19T16:44:22.934Z,4324
2019-05-19T16:45:23.511Z,4252
2019-05-19T16:46:24.089Z,3856
2019-05-19T16:47:24.669Z,3692
2019-05-19T16:48:25.249Z,3664
2019-05-19T16:49:25.825Z,3568
2019-05-19T16:50:26.402Z,3452
2019-05-19T16:51:26.982Z,3476
2019-05-19T16:52:27.562Z,3892
2019-05-19T16:53:28.142Z,3628
2019-05-19T16:54:28.726Z,3780
2019-05-19T16:55:29.354Z,3740
2019-05-19T16:56:29.933Z,3808
2019-05-19T16:57:30.513Z,3728
2019-05-19T16:58:44.509Z,3776
2019-05-19T16:59:32.662Z,3960
2019-05-19T17:00:33.242Z,4120
2019-05-19T17:01:33.821Z,4260
2019-05-19T17:02:34.398Z,4296
2019-05-19T17:03:34.976Z,4116
2019-05-19T17:04:35.557Z,3904
2019-05-19T17:05:36.137Z,3928
2019-05-19T17:06:36.713Z,3812
2019-05-19T17:07:37.294Z,3856
2019-05-19T17:08:37.873Z,3712
2019-05-19T17:09:38.454Z,3596
2019-05-19T17:10:39.030Z,3524
2019-05-19T17:11:54.330Z,3884
2019-05-19T17:12:54.954Z,3904
2019-05-19T17:13:55.533Z,3956
2019-05-19T17:14:56.109Z,3880
2019-05-19T17:15:56.689Z,3848
2019-05-19T17:16:57.266Z,3700
2019-05-19T17:17:57.848Z,3600
2019-05-19T17:18:58.424Z,3532
2019-05-19T17:19:59.003Z,3364
2019-05-19T17:20:59.586Z,3124
2019-05-19T17:22:00.163Z,2816
2019-05-19T17:23:00.785Z,2580
2019-05-19T17:24:01.400Z,2392
2019-05-19T17:25:01.990Z,2288
2019-05-19T17:26:02.567Z,2208
2019-05-19T17:27:03.164Z,2200
2019-05-19T17:28:03.772Z,2224
2019-05-19T17:29:04.350Z,2280
2019-05-19T17:30:04.971Z,2332
2019-05-19T17:31:07.634Z,2392
2019-05-19T17:32:07.122Z,2444
2019-05-19T17:33:07.701Z,2472
2019-05-19T17:34:08.279Z,2476
2019-05-19T17:35:08.867Z,2468
2019-05-19T17:36:09.442Z,2492
2019-05-19T17:37:10.015Z,2516
2019-05-19T17:38:10.590Z,2532
2019-05-19T17:39:11.169Z,2588
2019-05-19T17:40:11.747Z,2648
2019-05-19T17:41:12.372Z,2728
2019-05-19T17:42:13.830Z,2768
2019-05-19T17:43:13.573Z,2784
2019-05-19T17:44:14.150Z,2836
2019-05-19T17:45:14.729Z,3000
2019-05-19T17:46:15.361Z,3076
2019-05-19T17:47:15.895Z,3344
2019-05-19T17:48:26.105Z,3792
2019-05-19T17:49:18.047Z,3932
2019-05-19T17:50:18.627Z,4048
2019-05-19T17:51:19.207Z,4116
2019-05-19T17:52:19.804Z,3868
2019-05-19T17:53:20.403Z,3556
2019-05-19T17:54:20.982Z,3528
2019-05-19T17:55:21.559Z,2904
2019-05-19T17:56:22.135Z,2656
2019-05-19T17:57:22.758Z,2208
2019-05-19T17:58:23.384Z,1812
2019-05-19T17:59:23.958Z,2328
2019-05-19T18:00:24.539Z,2604
2019-05-19T18:01:25.117Z,2704
2019-05-19T18:02:25.696Z,2760
2019-05-19T18:03:26.272Z,2836
2019-05-19T18:04:26.851Z,2800
2019-05-19T18:05:27.436Z,2700
2019-05-19T18:06:29.804Z,2764
2019-05-19T18:07:29.627Z,2772
2019-05-19T18:08:30.203Z,2712
2019-05-19T18:09:30.779Z,2192
2019-05-19T18:10:31.401Z,1812
2019-05-19T18:11:31.987Z,1792
2019-05-19T18:12:32.599Z,1884
2019-05-19T18:13:33.231Z,1768
2019-05-19T18:14:33.804Z,1736
2019-05-19T18:15:34.394Z,1656
2019-05-19T18:16:35.008Z,1580
2019-05-19T18:17:35.624Z,1552
2019-05-19T18:18:36.247Z,1520
2019-05-19T18:19:36.825Z,1496
2019-05-19T18:20:37.405Z,1540
2019-05-19T18:21:37.982Z,1476
2019-05-19T18:22:38.558Z,1420
2019-05-19T18:23:39.138Z,1340
2019-05-19T18:24:39.715Z,1392
2019-05-19T18:25:40.295Z,1524
2019-05-19T18:26:40.872Z,1808
2019-05-19T18:27:41.471Z,2320
2019-05-19T18:28:42.076Z,2672
2019-05-19T18:29:42.695Z,2396
2019-05-19T18:30:43.276Z,2256
2019-05-19T18:31:43.856Z,2920
2019-05-19T18:32:44.432Z,3196
2019-05-19T18:33:45.009Z,3228
2019-05-19T18:34:45.589Z,3084
2019-05-19T18:35:46.166Z,2808
2019-05-19T18:36:46.784Z,2332
2019-05-19T18:37:47.374Z,2028
2019-05-19T18:38:47.938Z,1808
2019-05-19T18:39:48.515Z,1728
2019-05-19T18:40:49.094Z,1524
2019-05-19T18:41:49.670Z,1428
2019-05-19T18:42:50.252Z,1376
2019-05-19T18:43:50.872Z,2216
2019-05-19T18:44:51.450Z,1580
2019-05-19T18:45:52.027Z,2148
2019-05-19T18:46:52.642Z,1732
2019-05-19T18:47:53.199Z,2108
2019-05-19T18:48:53.768Z,2028
2019-05-19T18:49:54.345Z,1948
2019-05-19T18:50:54.921Z,1904
2019-05-19T18:51:55.502Z,1852
2019-05-19T18:52:56.121Z,1808
2019-05-19T18:53:56.697Z,1776
2019-05-19T18:54:57.275Z,1756
2019-05-19T18:55:57.853Z,1708
2019-05-19T18:56:58.430Z,1720
2019-05-19T18:57:59.011Z,1712
2019-05-19T18:58:59.583Z,1696
2019-05-19T19:00:00.160Z,1520
2019-05-19T19:01:00.741Z,1352
2019-05-19T19:02:01.314Z,972
2019-05-19T19:03:01.889Z,1088
2019-05-19T19:04:02.473Z,1068
2019-05-19T19:05:03.044Z,804
2019-05-19T19:06:03.619Z,724
2019-05-19T19:07:04.195Z,744
2019-05-19T19:08:04.773Z,844
2019-05-19T19:09:05.364Z,960
2019-05-19T19:10:05.941Z,896
2019-05-19T19:11:06.527Z,664
2019-05-19T19:12:07.095Z,552
2019-05-19T19:13:07.682Z,532
2019-05-19T19:14:22.915Z,548
2019-05-19T19:15:23.493Z,524
2019-05-19T19:16:24.069Z,500
2019-05-19T19:17:24.643Z,528
2019-05-19T19:18:25.300Z,608
2019-05-19T19:19:25.877Z,652
2019-05-19T19:20:26.453Z,528
2019-05-19T19:21:27.031Z,400
2019-05-19T19:22:27.605Z,348
2019-05-19T19:23:28.183Z,328
2019-05-19T19:24:28.810Z,312
2019-05-19T19:25:44.196Z,316
2019-05-19T19:26:44.772Z,344
2019-05-19T19:27:45.349Z,356
2019-05-19T19:28:45.920Z,344
2019-05-19T19:30:00.616Z,320
2019-05-19T19:30:48.061Z,292
2019-05-19T19:31:49.056Z,300
2019-05-19T19:32:49.851Z,300
2019-05-19T19:33:50.469Z,288
2019-05-19T19:34:51.047Z,264
2019-05-19T19:35:51.622Z,228
2019-05-19T19:36:52.195Z,200
2019-05-19T19:37:52.769Z,180
2019-05-19T19:38:53.341Z,156
2019-05-19T19:39:53.915Z,148
2019-05-19T19:40:54.577Z,136
2019-05-19T19:41:55.103Z,124
2019-05-19T19:42:55.676Z,116
2019-05-19T19:43:56.249Z,104
2019-05-19T19:44:56.826Z,96
2019-05-19T19:45:57.399Z,88
2019-05-19T19:46:57.971Z,80
2019-05-19T19:47:58.542Z,68
2019-05-19T19:48:59.115Z,64
2019-05-19T19:49:59.690Z,60
2019-05-19T19:51:00.264Z,52
2019-05-19T19:52:00.833Z,44
2019-05-19T19:53:01.408Z,40
2019-05-19T19:54:02.032Z,36
2019-05-19T19:55:02.598Z,28
2019-05-19T19:56:03.172Z,24
2019-05-19T19:57:03.742Z,24
2019-05-19T19:58:04.316Z,16
2019-05-19T19:59:04.897Z,16
2019-05-19T20:00:17.240Z,16
2019-05-19T20:01:07.026Z,12
2019-05-19T20:02:07.607Z,8
2019-05-19T20:03:08.244Z,8
2019-05-19T20:04:08.794Z,16
2019-05-19T20:05:09.400Z,8
2019-05-19T20:06:09.975Z,8
2019-05-19T20:07:10.543Z,8
2019-05-19T20:08:11.119Z,4
2019-05-19T20:09:11.686Z,4
2019-05-19T20:10:12.257Z,4
2019-05-19T20:11:12.828Z,8
2019-05-19T20:12:13.400Z,8
2019-05-19T20:13:13.973Z,8
2019-05-19T20:14:14.545Z,8
2019-05-19T20:15:15.116Z,8
2019-05-19T20:16:15.689Z,8
2019-05-19T20:17:16.259Z,4
2019-05-19T20:18:16.832Z,4
2019-05-19T20:19:17.446Z,4
2019-05-19T20:20:18.019Z,4
2019-05-19T20:21:18.590Z,4
2019-05-19T20:22:19.163Z,4
2019-05-19T20:23:19.734Z,8
2019-05-19T20:24:20.308Z,8
2019-05-19T20:25:20.878Z,8
2019-05-19T20:26:21.451Z,8
2019-05-19T20:27:22.027Z,8
2019-05-19T20:28:22.634Z,8
2019-05-19T20:29:23.204Z,8
2019-05-19T20:30:35.015Z,8
2019-05-19T20:31:26.758Z,8
2019-05-19T20:32:27.331Z,4
2019-05-19T20:33:27.899Z,8
2019-05-19T20:34:28.477Z,8
2019-05-19T20:35:29.042Z,8
2019-05-19T20:36:29.628Z,8
2019-05-19T20:37:30.227Z,8
2019-05-19T20:38:30.800Z,8
2019-05-19T20:39:31.412Z,8
2019-05-19T20:40:31.989Z,8
2019-05-19T20:41:32.558Z,8
2019-05-19T20:42:33.128Z,8
2019-05-19T20:43:33.702Z,8
2019-05-19T20:44:34.275Z,8
2019-05-19T20:45:34.847Z,8
2019-05-19T20:46:35.416Z,8
2019-05-19T20:47:35.985Z,8
2019-05-19T20:48:36.558Z,8
2019-05-19T20:49:37.128Z,8